Weather observations for the past three days for
Wahoo
Metric (Imperial)
Date Time (cdt) Wind (kph) Vis. (km) Weather Sky Cond. Temperature (ºC) Relative Humidity Wind Chill (°C) Heat Index (°C) Pressure Precipitation (cm)
Air Dwpt 6 hour altimeter (cm) sea level (mb) 1 hr 3 hr 6 hr
Max. Min.
02 19:55 SW 11 16.09 Fair CLR 18.7 -4.5 20% 76.1 0.0
02 19:35 SW 9 16.09 Fair CLR 19.9 -4.9 18% 76.1 0.0
02 19:15 SW 17 16.09 Fair CLR 20.6 -7 15% 76.12 0.0
02 18:55 W 17 16.09 Fair CLR 21.1 -6.7 21.5 16.8 15% 76.12 0.0
02 18:35 W 17 16.09 Fair CLR 21.2 -8.1 13% 76.15 0.0
02 18:15 SW 13 G 20 16.09 Fair CLR 21.5 -7 14% 76.15 0.0
02 17:55 W 17 16.09 Fair CLR 21.1 -7.2 14% 76.17 0.0
02 17:35 W 13 16.09 Fair CLR 21.5 -5.4 16% 76.2 0.0
02 17:15 W 15 G 26 16.09 Fair CLR 21.5 -6.6 15% 76.23 0.0
02 16:55 W 19 16.09 Fair CLR 21.2 -6.8 15% 76.25 0.0
02 16:35 W 15 G 28 16.09 Fair CLR 21 -6.7 15% 76.28 0.0
02 16:15 W 19 16.09 Fair CLR 20.7 -6.2 16% 76.3 0.0
02 15:55 W 13 16.09 Fair CLR 19.8 -5.8 17% 76.33 0.0
02 15:35 W 11 16.09 Fair CLR 19.6 -4.6 19% 76.35 0.0
02 15:15 W 7 16.09 Fair CLR 19.5 -5.8 18% 76.38 0.0
02 14:55 NW 9 16.09 Fair CLR 18.8 -5.1 19% 76.4 0.0
02 14:35 SW 9 16.09 Fair CLR 18.6 -4.3 21% 76.43 0.0
02 14:15 SW 9 16.09 Fair CLR 18.5 -4.3 21% 76.45 0.0
02 13:55 W 9 16.09 Fair CLR 17.8 -4.7 21% 76.48 0.0
02 13:35 W 11 16.09 Fair CLR 17.9 -4.7 21% 76.5 0.0
02 13:15 Calm 16.09 Fair CLR 17.4 -3.7 24% 76.53 0.0
02 12:55 NW 7 16.09 Fair CLR 17 -4.7 17.1 -1.2 22% 76.56 0.0
02 12:35 W 20 G 26 16.09 Fair CLR 16.7 -3.5 25% 76.56 0.0
02 12:15 NW 15 16.09 Fair CLR 16.8 -4.4 23% 76.58 0.0
02 11:55 W 7 G 17 16.09 Fair CLR 15.9 -3.6 26% 76.58 0.0
02 11:35 W 9 16.09 Fair CLR 15.8 -3.7 26% 76.61 0.0
02 11:15 SW 9 16.09 Fair CLR 14.4 -4.3 27% 76.61 0.0
02 10:55 Calm 16.09 Fair CLR 14.4 -4 28% 76.63 0.0
02 10:35 NW 17 16.09 Fair CLR 13.8 -3.7 30% 76.63 0.0
02 10:15 SW 11 16.09 Fair CLR 13.3 -3.3 32% 76.68 0.0
02 09:55 W 9 16.09 Fair CLR 12.3 -2.1 37% 76.68 0.0
02 09:35 W 6 16.09 Fair CLR 11.1 -1.7 41% 76.66 0.0
02 09:15 Calm 16.09 Fair CLR 9.9 -1.3 46% 76.66 0.0
02 08:55 Calm 16.09 Fair CLR 8.8 -1.1 50% 76.68 0.0
02 08:35 W 6 16.09 Fair CLR 7.4 -0.2 59% 76.68 0.0
02 08:15 Calm 16.09 Fair CLR 6.2 -0.1 64% 76.68 0.0
02 07:55 Calm 16.09 Fair CLR 3.7 -1.1 71% 76.68 0.0
02 07:35 Calm 16.09 Fair CLR 1.3 -2.2 78% 76.66 0.0
02 07:15 Calm 16.09 Fair CLR -0.1 -3.6 78% 76.66 0.0
02 06:55 Calm 16.09 Fair CLR -1.2 -4.3 5.5 -1.5 80% 76.66 0.0
02 06:35 Calm 16.09 Fair CLR -1 -4.6 77% 76.63 0.0
02 06:15 Calm 16.09 Fair CLR -0.7 -4.2 77% 76.63 0.0
02 05:55 Calm 16.09 Fair CLR -0.6 -3.9 79% 76.66 0.0
02 05:35 NW 6 16.09 Fair CLR -1 -4.1 80% 76.63 0.0
02 05:15 Calm 16.09 Fair CLR -0.1 -4.3 74% 76.63 0.0
02 04:55 Calm 16.09 Fair CLR -0.6 -4 78% 76.63 0.0
02 04:35 NW 6 16.09 Fair CLR -0.4 -3.7 79% 76.63 0.0
02 04:15 Calm 16.09 Fair CLR -0.1 -3.7 77% 76.61 0.0
02 03:55 NW 6 16.09 Fair CLR 1.9 -3.7 67% 76.61 0.0
02 03:35 NW 7 16.09 Fair CLR 0.8 -3.5 73% -1 76.61 0.0
02 03:15 Calm 16.09 Fair CLR 1.5 -2.5 75% 76.61 0.0
02 02:55 W 7 16.09 Fair CLR 0.9 -3.7 72% -1 76.61 0.0
02 02:35 N 6 16.09 Fair CLR 0.8 -3.6 73% 76.61 0.0
02 02:15 Calm 16.09 Fair CLR 1.7 -4 66% 76.61 0.0
02 01:35 NW 6 16.09 Fair CLR 3.2 -3.6 61% 76.61 0.0
02 01:15 NW 6 16.09 Fair CLR 5.4 -3.7 52% 76.61 0.0
02 00:55 NW 9 16.09 Fair CLR 4.7 -4 14 4.2 54% 3 76.61 0.0
02 00:35 NW 9 16.09 Fair CLR 4.3 -4 55% 2 76.58 0.0
02 00:15 NW 9 16.09 Fair CLR 5.3 -4.2 51% 3 76.58 0.0
01 23:55 NW 9 16.09 Fair CLR 6.1 -4.4 47% 4 76.58 0.0
01 23:35 NW 7 16.09 Fair CLR 6.7 -4.5 45% 6 76.58 0.0
01 23:15 NW 7 16.09 Fair CLR 6.5 -4.3 46% 5 76.56 0.0
01 22:55 NW 7 16.09 Fair CLR 5.8 -4.3 49% 5 76.58 0.0
01 22:35 NW 6 16.09 Fair CLR 6.3 -4.2 47% 76.58 0.0
01 22:15 N 6 16.09 Fair CLR 5.9 -4.2 49% 76.56 0.0
01 21:55 N 6 16.09 Fair CLR 5.8 -4.3 49% 76.53 0.0
01 21:35 N 11 16.09 Fair CLR 6.1 -4.8 46% 4 76.53 0.0
01 21:15 N 11 16.09 Fair CLR 6.2 -5.1 45% 4 76.5 0.0
01 20:55 N 11 16.09 Fair CLR 7.3 -5 42% 5 76.48 0.0
01 20:35 N 15 16.09 Fair CLR 9.3 -5 36% 7 76.48 0.0
01 20:15 N 19 16.09 Fair CLR 11 -5.5 31% 76.45 0.0
01 19:55 N 19 16.09 Fair CLR 12.1 -6 28% 76.45 0.0
01 19:35 N 22 16.09 Fair CLR 12.9 -6.2 26% 76.43 0.0
01 19:15 N 22 16.09 Fair CLR 13.5 -6.2 25% 76.43 0.0
01 18:55 N 26 16.09 Fair CLR 13.8 -6.8 15.6 13.8 24% 76.43 0.0
01 18:35 N 22 16.09 Fair CLR 14.1 -6.7 23% 76.43 0.0
01 18:15 N 30 G 37 16.09 Fair CLR 14.6 -7.2 22% 76.4 0.0
01 17:55 NW 26 G 41 16.09 Fair CLR 14.6 -7 22% 76.43 0.0
01 17:35 NW 24 G 39 16.09 Fair CLR 15.1 -7.6 20% 76.4 0.0
01 17:15 NW 28 G 41 16.09 Fair CLR 15.2 -7.5 20% 76.4 0.0
01 16:55 N 26 G 35 16.09 Fair CLR 15.2 -7.1 21% 76.4 0.0
01 16:35 NW 20 G 41 16.09 Fair CLR 15.5 -7.5 20% 76.4 0.0
01 16:15 N 26 G 39 16.09 Fair CLR 15.3 -7.4 20% 76.4 0.0
01 15:55 N 20 G 33 16.09 Fair CLR 15.5 -7.2 20% 76.43 0.0
01 15:35 N 26 G 39 16.09 Fair CLR 15.2 -6.4 22% 76.43 0.0
01 15:15 N 19 G 37 16.09 Fair CLR 15 -5.5 24% 76.45 0.0
01 14:55 N 28 G 37 16.09 Fair CLR 15.2 -5.2 24% 76.45 0.0
01 14:35 N 20 G 39 16.09 Fair CLR 14.8 -5.3 25% 76.45 0.0
01 14:15 N 20 G 43 16.09 Fair CLR 14.7 -5.1 25% 76.45 0.0
01 13:55 N 30 G 46 16.09 Fair CLR 14.6 -4 28% 76.45 0.0
01 13:35 N 28 G 43 16.09 Fair CLR 14.4 -3.3 29% 76.45 0.0
01 13:15 N 19 G 44 16.09 Fair CLR 14.1 -3.2 30% 76.45 0.0
01 12:55 N 24 G 37 16.09 Fair CLR 13.8 -2.1 14.1 5 33% 76.48 0.0
01 12:35 N 26 G 35 16.09 Fair CLR 14 -1.4 35% 76.48 0.0
01 12:15 N 22 G 41 16.09 Partly Cloudy SCT045 12.8 -0.9 39% 76.48 0.0
01 11:55 N 30 G 39 16.09 Partly Cloudy SCT045 12.7 -0.2 41% 76.48 0.0
01 11:35 N 26 G 43 16.09 Partly Cloudy SCT041 12.6 -0.4 41% 76.48 0.0
01 11:15 N 26 G 41 16.09 Partly Cloudy SCT041 12.6 -0.3 41% 76.48 0.0
01 10:55 NW 24 G 33 16.09 Fair CLR 11.6 0.6 47% 76.48 0.0
01 10:35 N 28 G 37 16.09 Fair CLR 11.5 1.3 50% 76.48 0.0
01 10:15 N 31 G 39 16.09 Fair CLR 11 1.4 52% 76.48 0.0
01 09:55 N 22 16.09 Fair CLR 10.2 1.9 57% 76.48 0.0
01 09:35 N 19 16.09 Fair CLR 10 1.6 56% 8 76.45 0.0
01 09:15 N 24 G 31 16.09 Fair CLR 8.8 1.1 59% 6 76.45 0.0
01 08:55 NW 26 16.09 Fair CLR 8.1 0.8 60% 5 76.43 0.0
01 08:35 NW 24 G 33 16.09 Fair CLR 7.5 0.4 61% 4 76.43 0.0
01 08:15 NW 20 G 30 16.09 Fair CLR 7.3 0.2 61% 4 76.43 0.0
01 07:55 NW 20 G 28 16.09 Fair CLR 7.1 0 61% 4 76.43 0.0
01 07:35 NW 19 16.09 Fair CLR 6.7 0 63% 4 76.4 0.0
01 07:15 NW 17 16.09 Fair CLR 5.7 0 67% 3 76.4 0.0
01 06:55 NW 17 16.09 Fair CLR 5.1 0 6 3.5 70% 2 76.4 0.0
01 06:35 W 17 16.09 Fair CLR 5.2 0.3 71% 2 76.38 0.0
01 06:15 W 17 16.09 Fair CLR 5 0.1 71% 2 76.38 0.0
01 05:55 W 17 16.09 Fair CLR 3.9 -0.1 75% 0 76.4 0.0
01 05:35 W 20 16.09 Fair CLR 4.7 0 72% 1 76.38 0.0
01 05:15 W 19 16.09 Partly Cloudy SCT085 SCT110 5 0 70% 2 76.38 0.0
01 04:55 W 20 16.09 Partly Cloudy SCT085 4.8 -0.4 69% 1 76.38 0.0
01 04:35 W 20 16.09 Fair CLR 5.3 -0.4 67% 2 76.38 0.0
01 04:15 W 17 16.09 Fair CLR 4.7 -0.5 69% 1 76.38 0.0
01 03:55 W 15 16.09 Partly Cloudy SCT095 4.7 -0.5 69% 2 76.38 0.0
01 03:35 W 15 16.09 Fair CLR 5.8 -0.9 62% 3 76.38 0.0
01 03:15 W 17 16.09 Partly Cloudy SCT095 5.9 -0.9 62% 3 76.38 0.0
01 02:55 SW 9 16.09 Partly Cloudy SCT095 5.5 -0.7 65% 4 76.38 0.0
01 02:35 W 9 16.09 Partly Cloudy SCT100 4.9 -0.6 68% 3 76.4 0.0
01 02:15 SW 7 16.09 Partly Cloudy SCT100 4.3 -0.7 70% 3 76.4 0.0
01 01:55 SW 9 16.09 Fair CLR 3.8 -1.5 69% 2 76.43 0.0
01 01:35 SW 9 16.09 Fair CLR 3.6 -1.2 71% 1 76.43 0.0
01 01:15 SW 9 16.09 Fair CLR 4 -1.4 68% 2 76.45 0.0
01 00:55 SW 11 16.09 Fair CLR 4.6 -0.6 13 4.2 69% 2 76.45 0.0
01 00:35 SW 9 16.09 Fair CLR 4.6 -1.1 67% 3 76.45 0.0
01 00:15 SW 7 16.09 Partly Cloudy SCT090 4.5 -0.9 68% 3 76.45 0.0
30 23:55 SW 9 16.09 Partly Cloudy SCT090 5 -1 66% 3 76.45 0.0
30 23:35 SW 9 16.09 Fair CLR 4.9 -0.9 66% 3 76.45 0.0
30 23:15 SW 9 16.09 Fair CLR 5.6 -0.8 64% 4 76.45 0.0
30 22:55 W 7 16.09 Fair CLR 5.4 -0.7 65% 4 76.48 0.0
30 22:35 SW 7 16.09 Fair CLR 7.2 -2.2 52% 6 76.48 0.0
30 22:15 Calm 16.09 Fair CLR 7.6 -0.2 58% 76.5 0.0
30 21:55 Calm 16.09 Fair CLR 6.7 -1.8 55% 76.48 0.0
30 21:35 Calm 16.09 Fair CLR 9 -2.2 46% 76.48 0.0
30 21:15 Calm 16.09 Fair CLR 8 -3.1 46% 76.45 0.0
30 20:55 N 7 16.09 Fair CLR 8.6 -2.9 45% 8 76.45 0.0
30 20:35 N 9 16.09 Fair CLR 8.5 -2.9 45% 7 76.43 0.0
30 20:15 N 11 16.09 Fair CLR 10.1 -3 40% 76.43 0.0
30 19:55 N 15 16.09 Fair CLR 11.5 -3.1 36% 76.43 0.0
30 19:35 N 13 16.09 Fair CLR 12.5 -3.5 33% 76.43 0.0
30 19:15 NW 22 G 30 16.09 Partly Cloudy SCT090 13 -3.6 32% 76.43 0.0
30 18:55 NW 20 16.09 Mostly Cloudy BKN100 BKN120 12.5 -3 14.7 12.5 34% 76.4 0.0
30 18:35 N 19 16.09 Mostly Cloudy SCT085 BKN100 13.2 -3 33% 76.43 0.0
30 18:15 N 22 G 31 16.09 Partly Cloudy SCT065 SCT100 13.6 -3 32% 76.43 0.0
30 17:55 N 20 G 31 16.09 Overcast BKN065 BKN080 OVC100 13 -2.8 34% 76.43 0.0
30 17:35 N 20 16.09 Overcast BKN065 OVC090 13.4 -2.5 33% 76.4 0.0
30 17:15 N 22 G 33 16.09 Overcast BKN065 BKN075 OVC090 14.2 -2.1 33% 76.4 0.0
30 16:55 NW 24 G 30 16.09 Overcast BKN060 OVC080 13.6 -1.8 35% 76.4 0.0
30 16:35 N 28 16.09 Overcast BKN060 OVC070 13.3 -1.3 37% 76.4 0.0
30 16:15 N 19 G 26 16.09 Mostly Cloudy SCT060 BKN070 BKN075 14.3 -1 35% 76.43 0.0
30 15:55 N 28 G 33 16.09 Mostly Cloudy SCT050 SCT070 BKN085 13.8 -0.6 37% 76.43 0.0
30 15:35 N 24 G 37 16.09 Partly Cloudy SCT055 SCT085 14.5 -0.2 37% 76.43 0.0
30 15:15 N 26 G 35 16.09 Mostly Cloudy SCT055 BKN080 BKN090 13.9 0.7 41% 76.45 0.0
30 14:55 N 28 G 37 16.09 Overcast BKN050 OVC070 13.6 0.1 40% 76.45 0.0
30 14:35 N 24 G 35 16.09 Mostly Cloudy SCT050 BKN070 BKN085 13.8 0 39% 76.43 0.0
30 14:15 N 28 G 35 16.09 Overcast SCT050 OVC060 13.1 -0.2 40% 76.43 0.0
30 13:55 N 19 G 33 16.09 Mostly Cloudy SCT048 SCT060 BKN070 13.5 0.3 41% 76.43 0.0
30 13:35 N 22 G 28 16.09 Mostly Cloudy SCT048 BKN060 BKN070 13.9 1.4 43% 76.45 0.0
30 13:15 N 24 G 35 16.09 Mostly Cloudy SCT044 BKN050 13.5 0.9 42% 76.45 0.0
30 12:55 N 19 G 37 16.09 Partly Cloudy SCT039 SCT050 13.6 1.7 14 8 45% 76.48 0.0
30 12:35 N 22 16.09 Partly Cloudy SCT039 13.2 2.6 49% 76.5 0.0
30 12:15 N 20 G 28 16.09 Fair CLR 12.6 3.1 53% 76.5 0.0
30 11:55 N 24 G 33 16.09 Fair CLR 12.6 3.8 55% 76.5 0.0
30 11:35 N 28 G 37 16.09 Partly Cloudy SCT080 12.1 3.4 56% 76.5 0.0
30 11:15 N 28 16.09 Partly Cloudy SCT016 SCT022 SCT080 11.9 4.7 62% 76.5 0.0
30 10:55 N 26 G 35 16.09 Overcast BKN014 BKN040 OVC080 11.2 5.6 69% 76.5 0.0
30 10:35 N 24 16.09 Mostly Cloudy SCT014 SCT042 BKN050 11 5.8 71% 76.48 0.0
30 10:15 N 26 16.09 Mostly Cloudy SCT014 SCT042 BKN070 11 5.5 69% 76.48 0.0
30 09:55 N 26 16.09 Mostly Cloudy SCT012 SCT040 BKN050 10.8 5.6 71% 76.45 0.0
30 09:35 N 28 G 35 16.09 Partly Cloudy SCT012 10.3 5.8 74% 76.43 0.0
30 09:15 N 28 G 37 16.09 Fair CLR 10.1 5.8 75% 76.4 0.0
30 08:55 N 28 G 37 16.09 Fair CLR 10 5.8 75% 7 76.4 0.0
30 08:35 NW 22 G 31 16.09 Fair CLR 9.5 5.6 77% 7 76.38 0.0
30 08:15 NW 20 16.09 Fair CLR 8.6 5.4 81% 6 76.38 0.0
30 07:55 NW 20 16.09 Fair CLR 8.6 5.3 80% 6 76.35 0.0
30 07:35 NW 22 16.09 Fair CLR 8 5 82% 5 76.33 0.0
30 07:15 NW 22 16.09 Fair CLR 8 4.5 79% 5 76.3 0.0
30 06:55 NW 22 16.09 Fair CLR 8.1 4.3 10.9 7.8 77% 5 76.3 0.0
30 06:35 NW 24 G 52 16.09 Fair CLR 8 4.4 78% 5 76.3 0.0
30 06:15 NW 15 16.09 Fair CLR 8.3 4.8 79% 6 76.3 0.0
30 05:55 NW 19 16.09 Fair CLR 8.3 5.5 83% 6 76.3 0.0
30 05:35 W 13 16.09 Fair CLR 8 6 87% 6 76.3 0.0
30 05:15 W 15 16.09 Fair CLR 8.5 6 84% 6 76.28 0.0
30 04:55 W 15 16.09 Fair CLR 8.9 6 82% 7 76.28 0.0
30 04:35 SW 13 16.09 Fair CLR 8.8 5.5 80% 7 76.25 0.0
30 04:15 Calm 16.09 Fair CLR 8.5 4.1 74% 76.25 0.0
30 03:55 Calm 16.09 Fair CLR 8.4 4.4 76% 76.25 0.0
30 03:35 S 6 16.09 Fair CLR 8 4.5 79% 76.25 0.0
30 03:15 S 6 16.09 Fair CLR 8.1 5 81% 76.28 0.0
30 02:55 S 7 16.09 Partly Cloudy SCT120 8.6 5.7 82% 8 76.28 0.0
30 02:35 SE 13 16.09 Mostly Cloudy SCT080 SCT100 BKN120 9.9 5.8 76% 8 76.3 0.0
30 02:15 SE 19 16.09 Overcast SCT055 BKN080 OVC110 10.1 6 76% 76.33 0.0
30 01:55 SE 9 16.09 Mostly Cloudy BKN055 BKN070 BKN080 9.5 6.2 80% 8 76.38 0.0
30 01:35 SE 9 16.09 Mostly Cloudy SCT055 BKN080 BKN095 10 6 76% 9 76.38 0.0
30 01:15 E 6 16.09 Overcast OVC065 10.7 5.9 72% 76.43 0.0
30 00:55 N 9 16.09 Overcast OVC065 11.4 5.2 16.6 9 66% 76.43 0.0
30 00:35 N 22 G 28 16.09 Overcast OVC065 12.2 3.5 56% 76.4 0.0
30 00:15 N 19 16.09 Overcast BKN065 OVC085 11.6 3.4 57% 76.4 0.0
29 23:55 S 13 16.09 Mostly Cloudy SCT075 BKN085 BKN110 10.2 4 66% 76.38 0.0
29 23:35 S 9 16.09 Mostly Cloudy BKN070 BKN090 9.2 4.5 73% 8 76.35 0.0
29 23:15 S 9 16.09 Mostly Cloudy BKN080 10 3.9 66% 9 76.35 0.0
29 22:55 S 7 16.09 Partly Cloudy SCT080 SCT090 SCT120 9.5 4 69% 9 76.38 0.0
29 22:35 S 9 16.09 Overcast SCT070 SCT090 OVC120 10 4.2 68% 9 76.38 0.0
29 22:15 SE 7 16.09 Mostly Cloudy BKN120 9.2 3.4 67% 8 76.38 0.0
29 21:55 Calm 16.09 Partly Cloudy SCT110 9.6 3.2 65% 76.38 0.0
29 21:35 S 6 16.09 Mostly Cloudy BKN110 11.7 1.9 51% 76.35 0.0
29 21:15 Calm 16.09 Partly Cloudy SCT070 SCT110 13.4 1.1 43% 76.35 0.0
29 20:55 Calm 16.09 Partly Cloudy SCT070 13.9 0.9 41% 76.33 0.0
29 20:35 SW 7 16.09 Fair CLR 14.3 1 41% 76.33 0.0
29 20:15 Calm 16.09 Fair CLR 14.2 1.5 42% 76.3 0.0
Date Time (cdt) Wind (kph) Vis. (km) Weather Sky Cond. Air Dwpt Max. Min. Relative Humidity Wind Chill (°C) Heat Index (°C) altimeter (cm) sea level (mb) 1 hr 3 hr 6 hr
6 hour
Temperature (ºC) Pressure Precipitation (cm)